createdAt,value
2023-04-06T00:01:21.985Z,3.60
2023-04-06T00:03:51.118Z,4.25
2023-04-06T00:06:21.245Z,3.90
2023-04-06T00:08:50.562Z,4.40
2023-04-06T00:11:19.262Z,3.45
2023-04-06T00:13:48.374Z,3.92
2023-04-06T00:16:17.172Z,4.25
2023-04-06T00:18:46.273Z,3.83
2023-04-06T00:21:16.185Z,3.97
2023-04-06T00:23:46.767Z,3.47
2023-04-06T00:26:15.544Z,3.88
2023-04-06T00:28:48.696Z,4.07
2023-04-06T00:31:17.469Z,3.33
2023-04-06T00:33:46.536Z,3.70
2023-04-06T00:36:15.425Z,3.90
2023-04-06T00:38:44.406Z,4.07
2023-04-06T00:41:14.982Z,3.95
2023-04-06T00:43:44.129Z,4.10
2023-04-06T00:46:12.966Z,3.30
2023-04-06T00:48:42.899Z,3.65
2023-04-06T00:51:11.921Z,3.45
2023-04-06T00:53:41.014Z,3.65
2023-04-06T00:56:11.869Z,3.90
2023-04-06T00:58:55.399Z,3.83
2023-04-06T01:01:25.813Z,3.83
2023-04-06T01:03:57.507Z,3.75
2023-04-06T01:06:26.483Z,4.00
2023-04-06T01:09:02.852Z,4.20
2023-04-06T01:11:32.564Z,3.97
2023-04-06T01:14:05.597Z,3.78
2023-04-06T01:16:49.781Z,3.75
2023-04-06T01:19:22.670Z,3.65
2023-04-06T01:21:54.832Z,3.78
2023-04-06T01:24:27.993Z,3.80
2023-04-06T01:27:05.861Z,4.28
2023-04-06T01:29:58.939Z,3.70
2023-04-06T01:32:41.530Z,3.47
2023-04-06T01:35:13.286Z,3.85
2023-04-06T01:37:49.445Z,3.92
2023-04-06T01:40:28.088Z,4.45
2023-04-06T01:42:56.925Z,3.60
2023-04-06T01:45:34.250Z,3.65
2023-04-06T01:48:12.842Z,4.00
2023-04-06T01:50:42.304Z,3.85
2023-04-06T01:53:13.153Z,3.88
2023-04-06T01:55:45.787Z,3.58
2023-04-06T01:58:21.466Z,3.50
2023-04-06T02:00:50.744Z,3.97
2023-04-06T02:03:20.161Z,4.00
2023-04-06T02:05:51.115Z,4.03
2023-04-06T02:08:26.848Z,4.43
2023-04-06T02:10:57.325Z,3.53
2023-04-06T02:13:33.155Z,3.70
2023-04-06T02:16:03.678Z,4.05
2023-04-06T02:18:33.443Z,4.15
2023-04-06T02:21:02.663Z,4.10
2023-04-06T02:23:31.387Z,4.60
2023-04-06T02:26:01.850Z,4.38
2023-04-06T02:28:30.793Z,4.43
2023-04-06T02:30:59.746Z,4.43
2023-04-06T02:33:29.885Z,4.25
2023-04-06T02:35:59.310Z,5.20
2023-04-06T02:38:28.111Z,5.65
2023-04-06T02:40:57.169Z,5.95
2023-04-06T02:43:30.641Z,6.20
2023-04-06T02:46:19.699Z,5.97
2023-04-06T02:48:49.325Z,6.53
2023-04-06T02:51:18.583Z,6.35
2023-04-06T02:53:52.774Z,6.78
2023-04-06T02:56:22.574Z,6.85
2023-04-06T02:58:54.976Z,7.63
2023-04-06T03:01:28.895Z,7.80
2023-04-06T03:04:02.316Z,7.15
2023-04-06T03:06:32.432Z,7.50
2023-04-06T03:09:09.830Z,7.53
2023-04-06T03:11:41.667Z,8.27
2023-04-06T03:14:11.918Z,8.35
2023-04-06T03:16:41.023Z,8.20
2023-04-06T03:19:10.009Z,8.90
2023-04-06T03:21:39.641Z,9.85
2023-04-06T03:24:09.779Z,9.25
2023-04-06T03:26:38.855Z,9.75
2023-04-06T03:29:11.299Z,8.10
2023-04-06T03:31:40.513Z,7.88
2023-04-06T03:34:25.430Z,8.35
2023-04-06T03:37:06.778Z,8.23
2023-04-06T03:39:40.756Z,8.35
2023-04-06T03:42:10.534Z,7.57
2023-04-06T03:44:45.844Z,8.05
2023-04-06T03:47:15.581Z,8.38
2023-04-06T03:49:44.417Z,8.55
2023-04-06T03:52:15.590Z,8.20
2023-04-06T03:54:44.403Z,8.77
2023-04-06T03:57:13.691Z,8.70
2023-04-06T03:59:42.507Z,8.63
2023-04-06T04:02:12.937Z,9.30
2023-04-06T04:04:41.775Z,9.95
2023-04-06T04:07:10.872Z,9.20
2023-04-06T04:09:39.787Z,8.52
2023-04-06T04:12:09.207Z,8.75
2023-04-06T04:14:38.254Z,9.10
2023-04-06T04:17:07.313Z,9.07
2023-04-06T04:19:37.550Z,9.13
2023-04-06T04:22:07.583Z,9.18
2023-04-06T04:24:40.501Z,8.80
2023-04-06T04:27:09.672Z,8.88
2023-04-06T04:29:38.962Z,9.65
2023-04-06T04:32:11.727Z,8.60
2023-04-06T04:34:42.300Z,8.65
2023-04-06T04:37:17.539Z,9.20
2023-04-06T04:39:53.648Z,9.32
2023-04-06T04:42:23.073Z,9.88
2023-04-06T04:44:55.006Z,9.23
2023-04-06T04:47:35.496Z,8.75
2023-04-06T04:50:07.029Z,9.82
2023-04-06T04:52:39.762Z,8.80
2023-04-06T04:55:19.534Z,9.00
2023-04-06T04:57:52.733Z,9.05
2023-04-06T05:00:26.726Z,8.80
2023-04-06T05:02:59.587Z,8.20
2023-04-06T05:05:32.910Z,8.43
2023-04-06T05:08:03.683Z,8.77
2023-04-06T05:10:46.430Z,9.23
2023-04-06T05:13:15.679Z,8.30
2023-04-06T05:15:46.014Z,7.70
2023-04-06T05:18:25.242Z,7.95
2023-04-06T05:20:55.732Z,8.55
2023-04-06T05:23:31.991Z,7.10
2023-04-06T05:26:02.929Z,7.72
2023-04-06T05:28:32.357Z,7.00
2023-04-06T05:31:02.663Z,6.75
2023-04-06T05:33:38.717Z,7.20
2023-04-06T05:36:15.029Z,7.43
2023-04-06T05:38:48.046Z,7.22
2023-04-06T05:41:46.220Z,6.50
2023-04-06T05:44:17.025Z,7.47
2023-04-06T05:46:50.704Z,7.25
2023-04-06T05:49:20.155Z,7.43
2023-04-06T05:51:50.209Z,7.10
2023-04-06T05:54:19.909Z,6.80
2023-04-06T05:56:48.682Z,6.38
2023-04-06T05:59:18.285Z,6.20
2023-04-06T06:01:47.887Z,6.22
2023-04-06T06:04:17.172Z,6.40
2023-04-06T06:06:49.623Z,6.00
2023-04-06T06:09:21.919Z,5.60
2023-04-06T06:12:07.673Z,6.03
2023-04-06T06:14:37.438Z,5.95
2023-04-06T06:17:06.276Z,5.60
2023-04-06T06:19:35.779Z,5.70
2023-04-06T06:22:09.216Z,6.05
2023-04-06T06:24:42.726Z,4.82
2023-04-06T06:27:12.850Z,5.60
2023-04-06T06:29:42.265Z,5.13
2023-04-06T06:32:11.686Z,4.75
2023-04-06T06:34:42.399Z,5.00
2023-04-06T06:37:14.506Z,5.13
2023-04-06T06:39:43.652Z,5.13
2023-04-06T06:42:14.712Z,4.40
2023-04-06T06:44:59.600Z,4.93
2023-04-06T06:47:28.445Z,4.55
2023-04-06T06:49:57.464Z,5.03
2023-04-06T06:52:27.873Z,4.75
2023-04-06T06:54:57.797Z,4.47
2023-04-06T06:57:27.684Z,4.63
2023-04-06T06:59:56.780Z,4.45
2023-04-06T07:02:26.113Z,4.20
2023-04-06T07:04:55.372Z,4.85
2023-04-06T07:07:24.272Z,4.15
2023-04-06T07:09:54.803Z,4.00
2023-04-06T07:12:23.627Z,4.32
2023-04-06T07:14:52.910Z,3.80
2023-04-06T07:17:21.766Z,3.70
2023-04-06T07:19:51.006Z,3.63
2023-04-06T07:22:19.954Z,3.95
2023-04-06T07:24:48.924Z,3.67
2023-04-06T07:27:19.874Z,4.28
2023-04-06T07:29:49.018Z,4.43
2023-04-06T07:32:17.728Z,3.95
2023-04-06T07:34:47.895Z,4.47
2023-04-06T07:37:17.223Z,3.58
2023-04-06T07:39:46.530Z,4.07
2023-04-06T07:42:15.742Z,4.43
2023-04-06T07:44:47.506Z,3.92
2023-04-06T07:47:16.384Z,4.07
2023-04-06T07:49:46.309Z,3.92
2023-04-06T07:52:15.809Z,4.28
2023-04-06T07:54:46.778Z,3.83
2023-04-06T07:57:15.966Z,4.57
2023-04-06T07:59:46.604Z,3.35
2023-04-06T08:02:15.761Z,3.70
2023-04-06T08:04:45.891Z,4.05
2023-04-06T08:07:14.813Z,4.03
2023-04-06T08:09:43.816Z,4.18
2023-04-06T08:12:12.577Z,4.05
2023-04-06T08:14:41.650Z,4.00
2023-04-06T08:17:11.763Z,3.63
2023-04-06T08:19:41.057Z,3.75
2023-04-06T08:22:09.764Z,4.00
2023-04-06T08:24:38.891Z,4.32
2023-04-06T08:27:07.684Z,4.40
2023-04-06T08:29:36.958Z,4.53
2023-04-06T08:32:06.341Z,4.00
2023-04-06T08:34:37.006Z,3.35
2023-04-06T08:37:06.497Z,3.30
2023-04-06T08:39:35.562Z,3.28
2023-04-06T08:42:04.862Z,3.65
2023-04-06T08:44:35.031Z,4.18
2023-04-06T08:47:07.087Z,4.10
2023-04-06T08:49:40.551Z,4.00
2023-04-06T08:52:10.354Z,3.85
2023-04-06T08:54:39.637Z,3.88
2023-04-06T08:57:09.578Z,4.18
2023-04-06T08:59:39.759Z,4.13
2023-04-06T09:02:18.243Z,4.07
2023-04-06T09:04:51.512Z,4.03
2023-04-06T09:07:20.675Z,4.35
2023-04-06T09:09:49.874Z,4.25
2023-04-06T09:12:27.539Z,3.92
2023-04-06T09:14:58.250Z,4.05
2023-04-06T09:17:28.898Z,4.00
2023-04-06T09:19:59.596Z,4.03
2023-04-06T09:22:38.102Z,4.13
2023-04-06T09:25:08.986Z,4.10
2023-04-06T09:27:39.762Z,4.22
2023-04-06T09:30:14.799Z,4.13
2023-04-06T09:32:48.984Z,4.53
2023-04-06T09:35:21.088Z,5.90
2023-04-06T09:37:51.848Z,4.50
2023-04-06T09:40:22.282Z,4.80
2023-04-06T09:42:53.529Z,4.40
2023-04-06T09:45:23.106Z,5.82
2023-04-06T09:47:55.072Z,5.32
2023-04-06T09:50:28.797Z,4.57
2023-04-06T09:53:01.718Z,4.32
2023-04-06T09:55:36.478Z,4.32
2023-04-06T09:58:08.947Z,4.35
2023-04-06T10:00:50.573Z,4.63
2023-04-06T10:03:40.040Z,4.25
2023-04-06T10:06:15.552Z,4.80
2023-04-06T10:08:49.786Z,4.60
2023-04-06T10:11:19.679Z,5.13
2023-04-06T10:13:51.356Z,5.95
2023-04-06T10:16:21.004Z,5.50
2023-04-06T10:18:59.425Z,5.50
2023-04-06T10:21:33.212Z,4.78
2023-04-06T10:24:04.395Z,4.72
2023-04-06T10:26:33.560Z,4.28
2023-04-06T10:29:06.370Z,3.90
2023-04-06T10:31:41.474Z,4.05
2023-04-06T10:34:10.742Z,4.53
2023-04-06T10:36:41.327Z,4.38
2023-04-06T10:39:10.183Z,3.70
2023-04-06T10:41:44.572Z,5.32
2023-04-06T10:44:22.611Z,4.97
2023-04-06T10:47:01.440Z,6.10
2023-04-06T10:49:30.354Z,6.70
2023-04-06T10:52:00.755Z,4.97
2023-04-06T10:54:32.954Z,4.93
2023-04-06T10:57:02.078Z,5.95
2023-04-06T10:59:31.751Z,5.40
2023-04-06T11:02:00.824Z,5.05
2023-04-06T11:04:29.704Z,4.57
2023-04-06T11:07:00.217Z,5.20
2023-04-06T11:09:30.827Z,5.68
2023-04-06T11:12:00.049Z,5.13
2023-04-06T11:14:28.868Z,6.07
2023-04-06T11:16:58.103Z,5.50
2023-04-06T11:19:27.237Z,5.70
2023-04-06T11:21:58.085Z,5.30
2023-04-06T11:24:29.746Z,5.30
2023-04-06T11:27:01.960Z,5.30
2023-04-06T11:29:34.867Z,6.32
2023-04-06T11:32:06.361Z,6.78
2023-04-06T11:34:39.499Z,5.75
2023-04-06T11:37:11.576Z,5.60
2023-04-06T11:39:45.345Z,5.65
2023-04-06T11:42:14.447Z,6.07
2023-04-06T11:44:47.147Z,6.35
2023-04-06T11:47:16.418Z,6.43
2023-04-06T11:49:46.842Z,6.50
2023-04-06T11:52:21.698Z,6.22
2023-04-06T11:54:53.828Z,6.30
2023-04-06T11:57:25.540Z,6.15
2023-04-06T11:59:54.746Z,7.20
2023-04-06T12:02:23.831Z,6.95
2023-04-06T12:04:52.817Z,6.95
2023-04-06T12:07:21.892Z,6.82
2023-04-06T12:09:52.118Z,6.80
2023-04-06T12:12:21.264Z,7.82
2023-04-06T12:14:50.056Z,7.10
2023-04-06T12:17:19.870Z,7.05
2023-04-06T12:19:48.928Z,7.90
2023-04-06T12:22:19.963Z,6.72
2023-04-06T12:24:48.923Z,7.13
2023-04-06T12:27:19.308Z,6.95
2023-04-06T12:29:48.064Z,7.07
2023-04-06T12:32:17.420Z,7.22
2023-04-06T12:34:46.491Z,7.32
2023-04-06T12:37:16.107Z,6.57
2023-04-06T12:39:45.484Z,6.82
2023-04-06T12:42:15.004Z,6.50
2023-04-06T12:44:45.322Z,5.72
2023-04-06T12:47:14.559Z,6.28
2023-04-06T12:49:43.957Z,6.13
2023-04-06T12:52:13.306Z,6.40
2023-04-06T12:54:42.260Z,6.07
2023-04-06T12:57:11.687Z,6.00
2023-04-06T12:59:41.466Z,5.97
2023-04-06T13:02:12.554Z,5.47
2023-04-06T13:04:41.499Z,5.90
2023-04-06T13:07:10.328Z,6.43
2023-04-06T13:09:39.387Z,5.97
2023-04-06T13:12:08.475Z,5.40
2023-04-06T13:14:37.575Z,4.93
2023-04-06T13:17:06.467Z,5.75
2023-04-06T13:19:36.919Z,5.30
2023-04-06T13:22:05.893Z,5.28
2023-04-06T13:24:35.345Z,5.22
2023-04-06T13:27:04.673Z,5.60
2023-04-06T13:29:35.238Z,4.82
2023-04-06T13:32:04.087Z,5.70
2023-04-06T13:34:33.147Z,6.55
2023-04-06T13:37:03.345Z,7.93
2023-04-06T13:39:33.436Z,6.97
2023-04-06T13:42:03.900Z,6.78
2023-04-06T13:44:33.845Z,5.40
2023-04-06T13:47:02.967Z,6.80
2023-04-06T13:49:32.312Z,6.18
2023-04-06T13:52:02.558Z,6.15
2023-04-06T13:54:31.721Z,5.63
2023-04-06T13:57:01.516Z,5.18
2023-04-06T13:59:35.323Z,5.30
2023-04-06T14:02:05.132Z,5.45
2023-04-06T14:04:34.628Z,5.22
2023-04-06T14:07:08.253Z,6.18
2023-04-06T14:09:37.312Z,5.22
2023-04-06T14:12:06.304Z,5.35
2023-04-06T14:14:35.431Z,5.03
2023-04-06T14:17:04.481Z,5.25
2023-04-06T14:19:33.536Z,5.60
2023-04-06T14:22:03.874Z,5.70
2023-04-06T14:24:33.071Z,6.30
2023-04-06T14:27:02.257Z,5.38
2023-04-06T14:29:31.358Z,6.03
2023-04-06T14:32:01.630Z,5.82
2023-04-06T14:34:31.202Z,6.43
2023-04-06T14:36:59.926Z,6.65
2023-04-06T14:39:30.493Z,6.13
2023-04-06T14:41:59.248Z,15.82
2023-04-06T14:44:28.269Z,11.15
2023-04-06T14:46:57.237Z,6.13
2023-04-06T14:49:26.390Z,5.47
2023-04-06T14:51:55.113Z,6.53
2023-04-06T14:54:24.211Z,5.55
2023-04-06T14:56:54.396Z,5.75
2023-04-06T14:59:23.477Z,6.25
2023-04-06T15:01:52.438Z,6.50
2023-04-06T15:04:21.765Z,6.43
2023-04-06T15:06:50.553Z,6.25
2023-04-06T15:09:19.761Z,5.53
2023-04-06T15:11:48.566Z,5.20
2023-04-06T15:14:19.039Z,6.50
2023-04-06T15:16:47.734Z,5.32
2023-04-06T15:19:16.902Z,6.63
2023-04-06T15:21:45.626Z,5.35
2023-04-06T15:24:15.073Z,5.57
2023-04-06T15:26:43.978Z,6.03
2023-04-06T15:29:13.230Z,5.72
2023-04-06T15:31:43.608Z,5.88
2023-04-06T15:34:12.824Z,5.82
2023-04-06T15:36:43.621Z,5.70
2023-04-06T15:39:13.982Z,6.50
2023-04-06T15:41:42.853Z,9.80
2023-04-06T15:44:12.036Z,7.32
2023-04-06T15:46:42.606Z,6.40
2023-04-06T15:49:11.699Z,7.82
2023-04-06T15:51:40.528Z,6.32
2023-04-06T15:54:09.664Z,6.95
2023-04-06T15:56:38.440Z,9.45
2023-04-06T15:59:07.710Z,17.05
2023-04-06T16:01:36.680Z,12.00
2023-04-06T16:04:11.430Z,7.25
2023-04-06T16:06:41.249Z,6.65
2023-04-06T16:09:10.346Z,6.47
2023-04-06T16:11:39.179Z,7.20
2023-04-06T16:14:09.789Z,6.55
2023-04-06T16:16:38.626Z,6.47
2023-04-06T16:19:09.232Z,6.80
2023-04-06T16:21:38.139Z,6.78
2023-04-06T16:24:08.663Z,7.47
2023-04-06T16:26:37.576Z,6.45
2023-04-06T16:29:06.768Z,5.82
2023-04-06T16:31:35.842Z,6.80
2023-04-06T16:34:04.861Z,7.53
2023-04-06T16:36:35.804Z,7.40
2023-04-06T16:39:05.101Z,6.90
2023-04-06T16:41:34.222Z,7.13
2023-04-06T16:44:03.584Z,6.93
2023-04-06T16:46:33.119Z,6.75
2023-04-06T16:49:05.126Z,6.90
2023-04-06T16:51:37.031Z,6.85
2023-04-06T16:54:06.406Z,6.90
2023-04-06T16:56:35.332Z,7.43
2023-04-06T16:59:04.432Z,6.55
2023-04-06T17:01:33.330Z,6.22
2023-04-06T17:04:02.929Z,6.80
2023-04-06T17:06:32.190Z,7.57
2023-04-06T17:09:02.654Z,7.22
2023-04-06T17:11:43.654Z,7.30
2023-04-06T17:14:15.565Z,6.90
2023-04-06T17:16:44.390Z,6.70
2023-04-06T17:19:13.582Z,7.13
2023-04-06T17:21:42.783Z,8.57
2023-04-06T17:24:13.249Z,7.05
2023-04-06T17:26:41.994Z,7.45
2023-04-06T17:29:11.382Z,7.25
2023-04-06T17:31:40.164Z,7.53
2023-04-06T17:34:10.611Z,7.20
2023-04-06T17:36:39.419Z,7.78
2023-04-06T17:39:08.530Z,10.18
2023-04-06T17:41:39.931Z,9.63
2023-04-06T17:44:09.058Z,8.55
2023-04-06T17:46:37.892Z,9.15
2023-04-06T17:49:08.474Z,8.98
2023-04-06T17:51:37.271Z,10.18
2023-04-06T17:54:06.472Z,14.05
2023-04-06T17:56:35.505Z,11.23
2023-04-06T17:59:08.151Z,12.82
2023-04-06T18:01:37.935Z,15.93
2023-04-06T18:04:07.377Z,15.45
2023-04-06T18:06:37.028Z,13.18
2023-04-06T18:09:06.573Z,12.35
2023-04-06T18:11:35.407Z,12.10
2023-04-06T18:14:11.073Z,12.18
2023-04-06T18:16:41.087Z,12.02
2023-04-06T18:19:10.793Z,10.50
2023-04-06T18:21:39.500Z,10.13
2023-04-06T18:24:12.362Z,10.85
2023-04-06T18:26:44.079Z,9.90
2023-04-06T18:29:14.486Z,9.70
2023-04-06T18:31:44.772Z,9.50
2023-04-06T18:34:13.836Z,10.07
2023-04-06T18:36:42.599Z,9.27
2023-04-06T18:39:13.595Z,9.40
2023-04-06T18:41:42.959Z,9.52
2023-04-06T18:44:13.415Z,9.70
2023-04-06T18:46:44.717Z,10.00
2023-04-06T18:49:14.199Z,9.57
2023-04-06T18:51:43.072Z,10.07
2023-04-06T18:54:12.120Z,10.10
2023-04-06T18:56:42.080Z,10.05
2023-04-06T18:59:14.051Z,10.00
2023-04-06T19:01:45.788Z,10.82
2023-04-06T19:04:15.346Z,10.77
2023-04-06T19:06:44.642Z,10.70
2023-04-06T19:09:13.777Z,10.70
2023-04-06T19:11:43.071Z,12.18
2023-04-06T19:14:13.525Z,11.85
2023-04-06T19:16:51.977Z,12.98
2023-04-06T19:19:21.781Z,13.23
2023-04-06T19:21:50.739Z,13.68
2023-04-06T19:24:19.982Z,11.77
2023-04-06T19:26:49.123Z,10.88
2023-04-06T19:29:19.511Z,11.07
2023-04-06T19:31:48.272Z,11.00
2023-04-06T19:34:18.098Z,11.25
2023-04-06T19:36:47.630Z,11.43
2023-04-06T19:39:18.101Z,11.00
2023-04-06T19:41:47.089Z,17.77
2023-04-06T19:44:16.279Z,19.00
2023-04-06T19:46:47.390Z,17.38
2023-04-06T19:49:16.784Z,14.48
2023-04-06T19:51:46.032Z,12.77
2023-04-06T19:54:15.425Z,10.70
2023-04-06T19:56:44.171Z,11.73
2023-04-06T19:59:13.159Z,11.35
2023-04-06T20:01:42.020Z,10.18
2023-04-06T20:04:13.478Z,10.23
2023-04-06T20:06:42.473Z,10.48
2023-04-06T20:09:12.043Z,9.63
2023-04-06T20:11:40.918Z,9.20
2023-04-06T20:14:10.181Z,9.90
2023-04-06T20:16:39.030Z,10.68
2023-04-06T20:19:08.095Z,9.25
2023-04-06T20:21:39.530Z,9.00
2023-04-06T20:24:08.851Z,10.65
2023-04-06T20:26:37.727Z,9.60
2023-04-06T20:29:07.172Z,9.80
2023-04-06T20:31:36.157Z,9.18
2023-04-06T20:34:05.578Z,9.85
2023-04-06T20:36:35.797Z,10.07
2023-04-06T20:39:06.477Z,9.48
2023-04-06T20:41:35.520Z,10.68
2023-04-06T20:44:04.575Z,11.15
2023-04-06T20:46:33.647Z,11.63
2023-04-06T20:49:02.753Z,15.05
2023-04-06T20:51:31.658Z,15.10
2023-04-06T20:54:01.182Z,13.85
2023-04-06T20:56:31.664Z,10.65
2023-04-06T20:59:01.750Z,10.40
2023-04-06T21:01:30.725Z,10.25
2023-04-06T21:04:02.493Z,9.95
2023-04-06T21:06:32.590Z,10.30
2023-04-06T21:09:02.315Z,10.50
2023-04-06T21:11:32.529Z,10.20
2023-04-06T21:14:01.575Z,11.13
2023-04-06T21:16:30.712Z,10.60
2023-04-06T21:18:59.883Z,14.35
2023-04-06T21:21:28.736Z,9.85
2023-04-06T21:23:58.406Z,11.25
2023-04-06T21:26:27.245Z,10.32
2023-04-06T21:28:57.789Z,11.57
2023-04-06T21:31:26.622Z,11.25
2023-04-06T21:33:55.694Z,11.48
2023-04-06T21:36:24.555Z,12.15
2023-04-06T21:38:53.722Z,12.73
2023-04-06T21:41:22.629Z,12.38
2023-04-06T21:43:51.675Z,12.65
2023-04-06T21:46:21.995Z,13.85
2023-04-06T21:48:51.169Z,13.57
2023-04-06T21:51:20.768Z,13.93
2023-04-06T21:53:50.816Z,13.00
2023-04-06T21:56:22.507Z,13.20
2023-04-06T21:58:53.361Z,13.07
2023-04-06T22:01:24.114Z,13.48
2023-04-06T22:03:53.412Z,14.38
2023-04-06T22:06:24.163Z,14.38
2023-04-06T22:08:53.314Z,15.73
2023-04-06T22:11:22.038Z,14.88
2023-04-06T22:13:51.340Z,14.55
2023-04-06T22:16:20.218Z,14.82
2023-04-06T22:18:50.733Z,13.80
2023-04-06T22:21:19.590Z,14.25
2023-04-06T22:23:48.663Z,13.85
2023-04-06T22:26:17.876Z,14.80
2023-04-06T22:28:46.925Z,15.18
2023-04-06T22:31:15.881Z,13.38
2023-04-06T22:33:44.907Z,14.85
2023-04-06T22:36:15.152Z,14.00
2023-04-06T22:38:44.516Z,14.32
2023-04-06T22:41:13.342Z,14.45
2023-04-06T22:43:42.419Z,15.15
2023-04-06T22:46:11.155Z,12.93
2023-04-06T22:48:40.251Z,13.55
2023-04-06T22:51:08.930Z,13.15
2023-04-06T22:53:39.407Z,13.52
2023-04-06T22:56:08.241Z,13.27
2023-04-06T22:58:37.213Z,13.73
2023-04-06T23:01:07.546Z,13.48
2023-04-06T23:03:36.736Z,13.15
2023-04-06T23:06:06.277Z,12.85
2023-04-06T23:08:35.293Z,12.82
2023-04-06T23:11:05.467Z,12.00
2023-04-06T23:13:34.511Z,12.02
2023-04-06T23:16:03.409Z,12.57
2023-04-06T23:18:32.442Z,12.77
2023-04-06T23:21:01.297Z,12.43
2023-04-06T23:23:30.615Z,13.30
2023-04-06T23:25:59.319Z,12.85
2023-04-06T23:28:29.727Z,12.23
2023-04-06T23:30:58.469Z,13.10
2023-04-06T23:33:29.075Z,13.77
2023-04-06T23:35:57.950Z,13.15
2023-04-06T23:38:27.005Z,13.98
2023-04-06T23:40:55.721Z,14.25
2023-04-06T23:43:24.774Z,14.68
2023-04-06T23:45:54.992Z,13.95
2023-04-06T23:48:24.110Z,14.52
2023-04-06T23:50:53.036Z,14.73
2023-04-06T23:53:22.110Z,13.70
2023-04-06T23:55:51.174Z,15.38
2023-04-06T23:58:20.246Z,16.25
